createdAt,value
2023-01-29T00:03:12.523Z,25.70
2023-01-29T00:07:11.475Z,22.70
2023-01-29T00:11:15.445Z,22.20
2023-01-29T00:15:13.439Z,23.80
2023-01-29T00:19:11.461Z,18.60
2023-01-29T00:23:09.448Z,26.50
2023-01-29T00:27:07.427Z,22.50
2023-01-29T00:31:05.463Z,24.40
2023-01-29T00:35:03.423Z,24.60
2023-01-29T00:39:06.397Z,25.10
2023-01-29T00:43:22.406Z,23.30
2023-01-29T00:47:34.550Z,26.20
2023-01-29T00:51:32.533Z,29.80
2023-01-29T00:55:30.413Z,24.90
2023-01-29T00:59:28.455Z,29.70
2023-01-29T01:03:26.415Z,17.70
2023-01-29T01:07:24.484Z,18.70
2023-01-29T01:11:22.379Z,17.20
2023-01-29T01:15:20.377Z,16.70
2023-01-29T01:19:20.466Z,18.30
2023-01-29T01:23:18.434Z,21.60
2023-01-29T01:27:16.347Z,20.00
2023-01-29T01:31:26.439Z,21.70
2023-01-29T01:35:26.329Z,20.80
2023-01-29T01:39:24.380Z,22.10
2023-01-29T01:43:24.411Z,21.00
2023-01-29T01:47:22.338Z,23.80
2023-01-29T01:51:20.305Z,23.80
2023-01-29T01:55:18.390Z,21.00
2023-01-29T01:59:16.300Z,21.70
2023-01-29T02:03:34.380Z,21.00
2023-01-29T02:07:49.303Z,20.80
2023-01-29T02:11:47.324Z,22.40
2023-01-29T02:15:48.270Z,22.80
2023-01-29T02:20:15.670Z,23.60
2023-01-29T02:24:37.300Z,20.80
2023-01-29T02:28:41.284Z,21.40
2023-01-29T02:33:09.228Z,19.50
2023-01-29T02:37:18.310Z,22.20
2023-01-29T02:41:21.216Z,23.70
2023-01-29T02:45:30.256Z,26.20
2023-01-29T02:49:40.242Z,25.20
2023-01-29T02:53:55.217Z,24.70
2023-01-29T02:57:58.194Z,23.20
2023-01-29T03:02:05.329Z,25.70
2023-01-29T03:10:12.189Z,22.90
2023-01-29T03:14:23.188Z,24.90
2023-01-29T03:18:26.189Z,23.40
2023-01-29T03:22:30.176Z,25.10
2023-01-29T03:26:51.210Z,35.30
2023-01-29T03:31:19.234Z,37.60
2023-01-29T03:35:27.231Z,32.70
2023-01-29T03:39:25.183Z,30.10
2023-01-29T03:43:33.233Z,29.70
2023-01-29T03:47:39.159Z,26.20
2023-01-29T03:51:48.182Z,25.00
2023-01-29T03:56:14.110Z,26.80
2023-01-29T04:00:22.127Z,25.30
2023-01-29T04:04:48.103Z,25.30
2023-01-29T04:08:51.201Z,24.20
2023-01-29T04:13:02.170Z,24.60
2023-01-29T04:17:05.137Z,24.60
2023-01-29T04:21:10.105Z,26.80
2023-01-29T04:25:09.094Z,26.20
2023-01-29T04:29:38.092Z,26.20
2023-01-29T04:33:51.092Z,23.50
2023-01-29T04:37:59.062Z,23.60
2023-01-29T04:42:28.103Z,24.30
2023-01-29T04:46:33.050Z,25.70
2023-01-29T04:50:53.073Z,20.80
2023-01-29T04:55:20.014Z,20.40
2023-01-29T04:59:34.054Z,20.80
2023-01-29T05:03:32.021Z,18.80
2023-01-29T05:07:32.059Z,16.80
2023-01-29T05:11:31.030Z,18.80
2023-01-29T05:15:38.086Z,15.90
2023-01-29T05:23:37.026Z,19.40
2023-01-29T05:28:03.005Z,18.70
2023-01-29T05:32:00.986Z,16.50
2023-01-29T05:35:58.978Z,19.40
2023-01-29T05:39:56.978Z,17.60
2023-01-29T05:43:54.980Z,17.00
2023-01-29T05:47:52.967Z,14.80
2023-01-29T05:51:50.963Z,14.50
2023-01-29T05:55:49.072Z,20.90
2023-01-29T05:59:46.914Z,17.10
2023-01-29T06:03:45.003Z,18.10
2023-01-29T06:07:43.773Z,20.90
2023-01-29T06:11:42.084Z,20.30
2023-01-29T06:15:39.972Z,21.20
2023-01-29T06:19:38.003Z,25.10
2023-01-29T06:23:35.910Z,21.80
2023-01-29T06:27:33.988Z,19.60
2023-01-29T06:31:39.821Z,21.90
2023-01-29T06:35:37.943Z,21.50
2023-01-29T06:39:35.916Z,18.40
2023-01-29T06:43:34.009Z,20.40
2023-01-29T06:47:31.919Z,23.70
2023-01-29T06:51:30.065Z,26.20
2023-01-29T06:55:27.930Z,31.80
2023-01-29T06:59:25.921Z,37.20
2023-01-29T07:03:24.858Z,27.70
2023-01-29T07:07:22.995Z,24.70
2023-01-29T07:11:21.849Z,17.40
2023-01-29T07:15:19.984Z,20.00
2023-01-29T07:19:18.026Z,18.10
2023-01-29T07:23:15.932Z,16.40
2023-01-29T07:27:13.826Z,18.90
2023-01-29T07:31:13.893Z,19.60
2023-01-29T07:35:11.816Z,16.60
2023-01-29T07:39:09.892Z,15.90
2023-01-29T07:43:15.870Z,17.80
2023-01-29T07:47:15.220Z,20.00
2023-01-29T07:51:13.764Z,19.40
2023-01-29T07:55:11.821Z,23.00
2023-01-29T07:59:10.864Z,16.60
2023-01-29T08:03:08.764Z,17.40
2023-01-29T08:07:06.748Z,14.70
2023-01-29T08:11:04.751Z,16.70
2023-01-29T08:15:02.808Z,16.90
2023-01-29T08:19:00.949Z,15.20
2023-01-29T08:22:58.727Z,24.60
2023-01-29T08:26:56.806Z,26.60
2023-01-29T08:30:54.744Z,23.60
2023-01-29T08:34:52.861Z,28.90
2023-01-29T08:38:50.746Z,24.10
2023-01-29T08:42:48.701Z,22.00
2023-01-29T08:46:47.702Z,17.20
2023-01-29T08:50:45.737Z,19.40
2023-01-29T08:54:43.706Z,20.40
2023-01-29T08:58:41.771Z,21.40
2023-01-29T09:02:39.759Z,18.60
2023-01-29T09:06:37.686Z,22.00
2023-01-29T09:10:35.689Z,21.60
2023-01-29T09:14:34.656Z,23.70
2023-01-29T09:18:32.785Z,21.00
2023-01-29T09:22:30.757Z,18.00
2023-01-29T09:26:28.739Z,18.60
2023-01-29T09:30:26.642Z,23.20
2023-01-29T09:34:24.635Z,24.20
2023-01-29T09:38:23.695Z,20.10
2023-01-29T09:42:50.619Z,21.20
2023-01-29T09:46:55.659Z,19.40
2023-01-29T09:50:57.661Z,20.20
2023-01-29T09:55:17.918Z,20.90
2023-01-29T09:59:15.597Z,18.20
2023-01-29T10:03:21.663Z,15.50
2023-01-29T10:07:28.579Z,18.00
2023-01-29T10:11:44.616Z,18.50
2023-01-29T10:16:04.699Z,18.90
2023-01-29T10:20:11.611Z,18.10
2023-01-29T10:24:26.576Z,18.40
2023-01-29T10:28:40.685Z,17.60
2023-01-29T10:32:41.572Z,16.60
2023-01-29T10:36:46.586Z,15.70
2023-01-29T10:40:53.556Z,13.90
2023-01-29T10:45:26.815Z,13.30
2023-01-29T10:49:10.029Z,16.50
2023-01-29T10:52:39.408Z,18.30
2023-01-29T10:56:23.189Z,16.50
2023-01-29T10:59:56.752Z,17.50
2023-01-29T11:03:28.699Z,18.10
2023-01-29T11:06:52.966Z,17.40
2023-01-29T11:10:22.449Z,17.80
2023-01-29T11:13:57.273Z,18.60
2023-01-29T11:17:26.324Z,13.20
2023-01-29T11:21:03.163Z,17.60
2023-01-29T11:24:27.496Z,18.00
2023-01-29T11:27:55.640Z,19.40
2023-01-29T11:31:39.543Z,16.30
2023-01-29T11:35:07.442Z,15.00
2023-01-29T11:38:31.379Z,17.80
2023-01-29T11:42:01.159Z,18.30
2023-01-29T11:45:30.049Z,15.80
2023-01-29T11:48:59.270Z,21.40
2023-01-29T11:52:42.139Z,17.70
2023-01-29T11:56:31.193Z,16.10
2023-01-29T11:59:58.021Z,19.30
2023-01-29T12:03:28.741Z,16.80
2023-01-29T12:06:54.446Z,19.40
2023-01-29T12:10:35.676Z,17.90
2023-01-29T12:14:05.139Z,15.70
2023-01-29T12:17:35.234Z,16.20
2023-01-29T12:21:05.735Z,16.10
2023-01-29T12:24:43.130Z,16.80
2023-01-29T12:28:23.696Z,17.20
2023-01-29T12:32:06.351Z,21.90
2023-01-29T12:35:39.757Z,29.30
2023-01-29T12:39:03.714Z,19.10
2023-01-29T12:42:27.809Z,20.30
2023-01-29T12:45:56.561Z,18.60
2023-01-29T12:49:25.699Z,20.90
2023-01-29T12:52:55.742Z,20.90
2023-01-29T12:56:42.555Z,18.70
2023-01-29T13:00:15.351Z,17.40
2023-01-29T13:03:59.839Z,21.20
2023-01-29T13:07:54.413Z,22.60
2023-01-29T13:12:01.390Z,22.50
2023-01-29T13:15:59.357Z,20.10
2023-01-29T13:20:00.323Z,18.90
2023-01-29T13:24:01.329Z,19.80
2023-01-29T13:28:00.367Z,22.40
2023-01-29T13:32:03.404Z,23.30
2023-01-29T13:36:01.337Z,22.00
2023-01-29T13:40:08.397Z,28.20
2023-01-29T13:44:06.335Z,19.10
2023-01-29T13:48:06.322Z,16.80
2023-01-29T13:52:04.392Z,22.80
2023-01-29T13:56:02.411Z,23.60
2023-01-29T14:00:08.305Z,19.10
2023-01-29T14:04:06.299Z,18.40
2023-01-29T14:08:06.267Z,23.20
2023-01-29T14:12:04.267Z,22.50
2023-01-29T14:16:22.312Z,23.20
2023-01-29T14:20:45.037Z,24.50
2023-01-29T14:24:45.281Z,21.00
2023-01-29T14:28:45.253Z,24.30
2023-01-29T14:36:57.279Z,24.70
2023-01-29T14:40:55.212Z,27.70
2023-01-29T14:45:00.283Z,25.20
2023-01-29T14:49:02.262Z,24.50
2023-01-29T14:53:02.299Z,23.50
2023-01-29T14:57:12.194Z,25.20
2023-01-29T15:01:12.263Z,23.00
2023-01-29T15:05:13.304Z,22.60
2023-01-29T15:09:22.031Z,32.10
2023-01-29T15:13:34.161Z,31.60
2023-01-29T15:17:47.235Z,35.90
2023-01-29T15:21:45.177Z,32.90
2023-01-29T15:25:50.195Z,28.70
2023-01-29T15:29:48.162Z,27.70
2023-01-29T15:33:48.171Z,34.00
2023-01-29T15:37:50.163Z,32.90
2023-01-29T15:41:48.191Z,35.20
2023-01-29T15:45:48.206Z,36.10
2023-01-29T15:49:49.139Z,34.70
2023-01-29T15:53:56.126Z,30.00
2023-01-29T15:57:56.423Z,27.80
2023-01-29T16:01:54.221Z,35.50
2023-01-29T16:05:59.177Z,43.30
2023-01-29T16:09:57.140Z,52.20
2023-01-29T16:13:57.385Z,44.20
2023-01-29T16:17:57.081Z,32.30
2023-01-29T16:21:58.126Z,33.40
2023-01-29T16:25:56.066Z,36.50
2023-01-29T16:29:54.121Z,30.20
2023-01-29T16:33:56.074Z,31.00
2023-01-29T16:37:54.076Z,34.80
2023-01-29T16:41:52.076Z,31.20
2023-01-29T16:45:52.015Z,32.80
2023-01-29T16:49:53.105Z,33.80
2023-01-29T16:53:51.076Z,38.20
2023-01-29T16:57:49.071Z,35.50
2023-01-29T17:01:49.209Z,35.40
2023-01-29T17:05:55.199Z,35.30
2023-01-29T17:09:53.131Z,37.30
2023-01-29T17:13:51.111Z,38.80
2023-01-29T17:17:50.025Z,37.10
2023-01-29T17:21:48.020Z,33.70
2023-01-29T17:25:46.277Z,35.20
2023-01-29T17:29:45.963Z,32.60
2023-01-29T17:33:44.049Z,39.30
2023-01-29T17:37:42.961Z,36.80
2023-01-29T17:41:45.046Z,37.30
2023-01-29T17:45:43.997Z,42.10
2023-01-29T17:49:43.979Z,38.80
2023-01-29T17:53:45.915Z,46.30
2023-01-29T17:57:44.038Z,43.80
2023-01-29T18:01:42.033Z,49.50
2023-01-29T18:05:40.007Z,43.70
2023-01-29T18:09:37.970Z,50.90
2023-01-29T18:13:35.980Z,44.90
2023-01-29T18:17:35.048Z,48.50
2023-01-29T18:21:33.007Z,48.20
2023-01-29T18:25:31.008Z,43.40
2023-01-29T18:29:29.207Z,48.30
2023-01-29T18:33:26.900Z,47.20
2023-01-29T18:37:24.939Z,48.00
2023-01-29T18:41:24.860Z,45.40
2023-01-29T18:45:22.907Z,41.40
2023-01-29T18:49:20.872Z,46.70
2023-01-29T18:53:19.113Z,42.20
2023-01-29T18:58:33.465Z,51.30
2023-01-29T19:01:34.870Z,41.10
2023-01-29T19:05:32.846Z,47.00
2023-01-29T19:09:30.923Z,45.50
2023-01-29T19:13:28.845Z,43.00
2023-01-29T19:17:26.979Z,49.40
2023-01-29T19:21:26.807Z,43.70
2023-01-29T19:25:25.831Z,47.20
2023-01-29T19:29:23.861Z,45.90
2023-01-29T19:33:22.077Z,40.90
2023-01-29T19:37:20.995Z,41.70
2023-01-29T19:41:18.921Z,44.30
2023-01-29T19:45:17.107Z,45.50
2023-01-29T19:49:36.791Z,41.20
2023-01-29T19:53:34.874Z,46.50
2023-01-29T19:57:13.209Z,43.90
2023-01-29T20:00:37.328Z,43.00
2023-01-29T20:04:03.423Z,40.00
2023-01-29T20:07:29.146Z,40.80
2023-01-29T20:10:53.289Z,46.10
2023-01-29T20:14:17.221Z,42.40
2023-01-29T20:17:43.746Z,44.30
2023-01-29T20:21:15.467Z,41.20
2023-01-29T20:24:42.496Z,47.20
2023-01-29T20:28:11.871Z,47.80
2023-01-29T20:31:37.147Z,45.20
2023-01-29T20:35:02.207Z,49.40
2023-01-29T20:38:32.002Z,50.20
2023-01-29T20:41:57.356Z,48.00
2023-01-29T20:45:22.148Z,42.80
2023-01-29T20:48:46.149Z,39.60
2023-01-29T20:52:12.638Z,28.90
2023-01-29T20:55:36.723Z,33.80
2023-01-29T20:59:01.167Z,39.20
2023-01-29T21:02:25.349Z,39.60
2023-01-29T21:05:50.354Z,42.50
2023-01-29T21:09:14.756Z,37.50
2023-01-29T21:12:38.669Z,36.70
2023-01-29T21:16:04.098Z,36.30
2023-01-29T21:19:29.315Z,41.00
2023-01-29T21:22:54.464Z,43.30
2023-01-29T21:26:19.042Z,51.70
2023-01-29T21:29:43.350Z,45.30
2023-01-29T21:33:07.481Z,52.20
2023-01-29T21:36:32.447Z,53.70
2023-01-29T21:39:56.635Z,46.80
2023-01-29T21:43:20.458Z,52.90
2023-01-29T21:46:44.279Z,57.50
2023-01-29T21:50:09.794Z,39.20
2023-01-29T21:53:33.754Z,51.10
2023-01-29T21:56:59.235Z,47.10
2023-01-29T22:00:25.667Z,53.00
2023-01-29T22:03:49.678Z,47.80
2023-01-29T22:07:15.146Z,40.50
2023-01-29T22:10:39.386Z,51.40
2023-01-29T22:14:03.460Z,40.30
2023-01-29T22:17:28.356Z,35.80
2023-01-29T22:20:57.090Z,37.90
2023-01-29T22:24:22.439Z,40.40
2023-01-29T22:27:47.985Z,39.90
2023-01-29T22:31:11.967Z,38.20
2023-01-29T22:34:35.789Z,40.90
2023-01-29T22:37:59.726Z,40.80
2023-01-29T22:41:23.686Z,45.30
2023-01-29T22:44:48.181Z,36.50
2023-01-29T22:48:12.546Z,43.00
2023-01-29T22:51:36.380Z,40.10
2023-01-29T22:55:00.227Z,45.50
2023-01-29T22:58:24.205Z,39.90
2023-01-29T23:01:48.368Z,42.60
2023-01-29T23:05:12.188Z,43.50
2023-01-29T23:08:36.374Z,40.20
2023-01-29T23:12:01.481Z,40.90
2023-01-29T23:15:25.367Z,43.60
2023-01-29T23:18:54.490Z,42.80
2023-01-29T23:22:18.460Z,45.60
2023-01-29T23:25:59.824Z,43.70
2023-01-29T23:29:24.169Z,40.80
2023-01-29T23:32:48.052Z,45.10
2023-01-29T23:36:12.079Z,47.30
2023-01-29T23:39:36.005Z,46.30
2023-01-29T23:42:59.899Z,45.00
2023-01-29T23:46:24.034Z,47.80
2023-01-29T23:49:48.000Z,53.70
2023-01-29T23:53:11.860Z,46.80
2023-01-29T23:56:35.779Z,51.20
2023-01-29T23:59:59.768Z,46.50
